Time;durP1;ratioP1;P1;durP2;ratioP2;P2;SDS_P1;SDS_P2;PMS_P1;PMS_P2;Temp;Humidity;BMP_temperature;BMP_pressure;BME280_temperature;BME280_humidity;BME280_pressure;Samples;Min_cycle;Max_cycle;Signal;HPM_P1;HPM_P2
2022/09/14 00:01:53;;;;;;;5.55;1.55;;;;;;;;;;5018554;28;20033;-61
2022/09/14 00:04:19;;;;;;;6.78;1.50;;;;;;;;;;5006042;28;20040;-60
2022/09/14 00:06:45;;;;;;;3.35;1.30;;;;;;;;;;5005751;28;20037;-61
2022/09/14 00:09:15;;;;;;;4.28;1.40;;;;;;;;;;5004814;28;20415;-61
2022/09/14 00:11:40;;;;;;;8.38;1.58;;;;;;;;;;5012211;28;20643;-61
2022/09/14 00:14:06;;;;;;;7.78;1.42;;;;;;;;;;5011054;28;20462;-61
2022/09/14 00:16:38;;;;;;;8.60;1.80;;;;;;;;;;4999524;28;20045;-61
2022/09/14 00:19:25;;;;;;;11.75;1.90;;;;;;;;;;5011378;28;20052;-61
2022/09/14 00:21:53;;;;;;;4.13;1.30;;;;;;;;;;5010901;28;20042;-61
2022/09/14 00:24:19;;;;;;;6.50;1.65;;;;;;;;;;5004382;28;20048;-61
2022/09/14 00:26:45;;;;;;;7.57;1.20;;;;;;;;;;5020776;28;20083;-61
2022/09/14 00:29:10;;;;;;;4.50;1.38;;;;;;;;;;5004979;28;20038;-61
2022/09/14 00:31:37;;;;;;;5.63;1.45;;;;;;;;;;5013834;28;20475;-61
2022/09/14 00:34:05;;;;;;;7.22;1.42;;;;;;;;;;5013974;28;20037;-61
2022/09/14 00:36:32;;;;;;;6.47;1.50;;;;;;;;;;5009459;28;20037;-61
2022/09/14 00:38:59;;;;;;;5.10;1.60;;;;;;;;;;5014880;28;20033;-61
2022/09/14 00:41:31;;;;;;;5.70;1.35;;;;;;;;;;5013679;28;20030;-62
2022/09/14 00:44:25;;;;;;;6.88;1.58;;;;;;;;;;5005782;28;20101;-61
2022/09/14 00:46:55;;;;;;;4.78;1.55;;;;;;;;;;5009636;28;20057;-61
2022/09/14 00:49:36;;;;;;;7.25;1.70;;;;;;;;;;5015114;28;20382;-61
2022/09/14 00:52:09;;;;;;;8.55;1.60;;;;;;;;;;5031525;28;20049;-62
2022/09/14 00:54:41;;;;;;;6.88;1.65;;;;;;;;;;5017900;28;20068;-61
2022/09/14 00:57:06;;;;;;;4.57;1.35;;;;;;;;;;5018025;28;20483;-61
2022/09/14 00:59:35;;;;;;;10.90;1.95;;;;;;;;;;5014820;28;20033;-62
2022/09/14 01:02:01;;;;;;;6.53;1.50;;;;;;;;;;4995236;28;20036;-62
2022/09/14 01:04:27;;;;;;;8.55;1.60;;;;;;;;;;5010138;28;20041;-62
2022/09/14 01:07:01;;;;;;;9.45;1.50;;;;;;;;;;5026801;28;20083;-61
2022/09/14 01:09:38;;;;;;;6.38;1.50;;;;;;;;;;5012128;28;20118;-61
2022/09/14 01:12:16;;;;;;;9.50;1.80;;;;;;;;;;5003490;28;20057;-61
2022/09/14 01:14:52;;;;;;;5.47;1.55;;;;;;;;;;5004184;28;20672;-61
2022/09/14 01:17:42;;;;;;;4.88;1.40;;;;;;;;;;5022811;28;20079;-61
2022/09/14 01:20:27;;;;;;;5.20;1.70;;;;;;;;;;5009251;28;20048;-61
2022/09/14 01:23:08;;;;;;;5.50;1.80;;;;;;;;;;5025972;28;20525;-61
2022/09/14 01:25:52;;;;;;;;;;;;;;;;;;5017416;28;20470;-61
2022/09/14 01:28:44;;;;;;;6.43;1.83;;;;;;;;;;4998076;28;19917;-61
2022/09/14 01:31:18;;;;;;;6.30;1.58;;;;;;;;;;5008923;28;20045;-61
2022/09/14 01:33:53;;;;;;;8.27;1.95;;;;;;;;;;5016237;28;20644;-61
2022/09/14 01:36:20;;;;;;;8.10;1.80;;;;;;;;;;5018795;28;20441;-61
2022/09/14 01:38:52;;;;;;;7.57;1.58;;;;;;;;;;5013448;28;20231;-61
2022/09/14 01:41:22;;;;;;;9.15;1.50;;;;;;;;;;5010725;28;20125;-61
2022/09/14 01:43:56;;;;;;;4.90;1.60;;;;;;;;;;5008334;28;20034;-61
2022/09/14 01:46:28;;;;;;;5.20;1.60;;;;;;;;;;5014574;28;20041;-61
2022/09/14 01:49:02;;;;;;;4.15;1.50;;;;;;;;;;4998072;28;20034;-61
2022/09/14 01:51:37;;;;;;;7.35;1.65;;;;;;;;;;5002801;28;20042;-62
2022/09/14 01:54:12;;;;;;;7.82;1.75;;;;;;;;;;5006838;28;20045;-61
2022/09/14 01:56:45;;;;;;;6.60;1.52;;;;;;;;;;5006535;28;20091;-61
2022/09/14 01:59:16;;;;;;;5.75;1.75;;;;;;;;;;5012205;28;20026;-61
2022/09/14 02:01:48;;;;;;;4.65;1.52;;;;;;;;;;5023732;28;20042;-62
2022/09/14 02:04:16;;;;;;;3.95;1.48;;;;;;;;;;5002145;28;20041;-61
2022/09/14 02:06:45;;;;;;;8.30;1.75;;;;;;;;;;5006132;28;20041;-61
2022/09/14 02:09:15;;;;;;;13.02;1.75;;;;;;;;;;4997112;28;20166;-61
2022/09/14 02:11:41;;;;;;;5.22;1.40;;;;;;;;;;5023229;28;20482;-61
2022/09/14 02:14:07;;;;;;;4.00;1.42;;;;;;;;;;5016727;28;20033;-61
2022/09/14 02:16:32;;;;;;;6.43;1.60;;;;;;;;;;5012379;28;20475;-62
2022/09/14 02:19:00;;;;;;;6.95;1.70;;;;;;;;;;5004165;28;20050;-61
2022/09/14 02:21:29;;;;;;;5.82;1.60;;;;;;;;;;5012802;28;20447;-62
2022/09/14 02:23:56;;;;;;;9.13;1.58;;;;;;;;;;5005800;28;20141;-62
2022/09/14 02:26:22;;;;;;;8.55;1.60;;;;;;;;;;5021505;28;20042;-61
2022/09/14 02:28:48;;;;;;;4.68;1.40;;;;;;;;;;5002349;28;20034;-62
2022/09/14 02:31:44;;;;;;;3.10;1.30;;;;;;;;;;4994699;28;20089;-61
2022/09/14 02:34:34;;;;;;;4.00;1.40;;;;;;;;;;5010817;28;20386;-61
2022/09/14 02:37:22;;;;;;;6.53;1.58;;;;;;;;;;5033564;28;20037;-62
2022/09/14 02:40:06;;;;;;;10.68;1.70;;;;;;;;;;5012251;28;20042;-61
2022/09/14 02:42:53;;;;;;;4.63;1.52;;;;;;;;;;5010081;28;20497;-62
2022/09/14 02:45:42;;;;;;;5.40;1.40;;;;;;;;;;5011999;28;20045;-61
2022/09/14 02:48:18;;;;;;;6.22;1.60;;;;;;;;;;5022088;28;20044;-61
2022/09/14 02:51:02;;;;;;;5.32;1.63;;;;;;;;;;5013140;28;20037;-61
2022/09/14 02:53:41;;;;;;;4.22;1.40;;;;;;;;;;5025458;28;20042;-61
2022/09/14 02:56:08;;;;;;;6.03;1.52;;;;;;;;;;5004573;28;20026;-61
2022/09/14 02:58:37;;;;;;;6.22;1.65;;;;;;;;;;4995256;28;20040;-61
2022/09/14 03:01:03;;;;;;;12.00;1.60;;;;;;;;;;5011118;28;20038;-61
2022/09/14 03:03:28;;;;;;;6.35;1.70;;;;;;;;;;5007861;28;20048;-62
2022/09/14 03:05:55;;;;;;;6.03;2.03;;;;;;;;;;5025168;28;20104;-61
2022/09/14 03:08:21;;;;;;;4.93;1.40;;;;;;;;;;5010456;28;20406;-62
2022/09/14 03:10:47;;;;;;;8.50;1.70;;;;;;;;;;5010507;28;20091;-62
2022/09/14 03:13:12;;;;;;;5.13;1.55;;;;;;;;;;5011040;28;20037;-62
2022/09/14 03:15:38;;;;;;;7.65;1.63;;;;;;;;;;5004088;28;20493;-61
2022/09/14 03:18:05;;;;;;;7.03;1.70;;;;;;;;;;5001475;28;20129;-61
2022/09/14 03:20:32;;;;;;;5.13;1.52;;;;;;;;;;5000169;28;20487;-61
2022/09/14 03:22:58;;;;;;;6.68;1.55;;;;;;;;;;5023359;28;20124;-61
2022/09/14 03:25:23;;;;;;;8.00;1.75;;;;;;;;;;4997208;28;20117;-63
2022/09/14 03:27:50;;;;;;;6.07;1.42;;;;;;;;;;5025127;28;20116;-63
2022/09/14 03:30:16;;;;;;;5.60;1.80;;;;;;;;;;5031360;28;20029;-62
2022/09/14 03:32:42;;;;;;;4.75;1.40;;;;;;;;;;5017036;28;20041;-61
2022/09/14 03:35:07;;;;;;;6.07;1.75;;;;;;;;;;5032266;28;20179;-61
2022/09/14 03:37:37;;;;;;;5.65;1.67;;;;;;;;;;5020037;28;20103;-61
2022/09/14 03:40:04;;;;;;;5.63;1.77;;;;;;;;;;5028428;28;20485;-61
2022/09/14 03:42:29;;;;;;;4.70;1.60;;;;;;;;;;5030153;28;20033;-61
2022/09/14 03:44:55;;;;;;;5.78;1.60;;;;;;;;;;5031631;28;20033;-62
2022/09/14 03:47:20;;;;;;;9.35;1.60;;;;;;;;;;5031852;28;20041;-61
2022/09/14 03:49:46;;;;;;;7.72;1.63;;;;;;;;;;4993957;28;20023;-62
2022/09/14 03:52:11;;;;;;;6.20;1.75;;;;;;;;;;4992192;28;20031;-61
2022/09/14 03:54:36;;;;;;;6.95;1.90;;;;;;;;;;4992188;28;20468;-62
2022/09/14 03:57:02;;;;;;;6.88;1.98;;;;;;;;;;4992550;28;20073;-62
2022/09/14 03:59:27;;;;;;;4.22;1.70;;;;;;;;;;4992696;28;20422;-62
2022/09/14 04:01:53;;;;;;;6.57;1.77;;;;;;;;;;4991901;28;20034;-61
2022/09/14 04:04:18;;;;;;;6.32;1.77;;;;;;;;;;5006303;28;20034;-61
2022/09/14 04:06:43;;;;;;;11.32;1.83;;;;;;;;;;5009773;28;20065;-61
2022/09/14 04:09:09;;;;;;;5.22;1.70;;;;;;;;;;5012459;28;20386;-61
2022/09/14 04:11:34;;;;;;;7.40;2.15;;;;;;;;;;5011408;28;20030;-61
2022/09/14 04:14:02;;;;;;;8.85;2.10;;;;;;;;;;5012160;28;20026;-61
2022/09/14 04:16:28;;;;;;;6.93;1.88;;;;;;;;;;5012060;28;20036;-61
2022/09/14 04:18:54;;;;;;;5.53;2.10;;;;;;;;;;5011598;28;20667;-61
2022/09/14 04:21:21;;;;;;;4.55;2.20;;;;;;;;;;5011150;28;20034;-60
2022/09/14 04:23:47;;;;;;;7.13;2.10;;;;;;;;;;4992923;28;20094;-60
2022/09/14 04:26:16;;;;;;;6.47;2.10;;;;;;;;;;4992517;28;20034;-60
2022/09/14 04:28:42;;;;;;;7.10;2.20;;;;;;;;;;4991894;28;20030;-61
2022/09/14 04:31:09;;;;;;;7.47;2.08;;;;;;;;;;4992591;28;20044;-59
2022/09/14 04:33:36;;;;;;;8.15;2.08;;;;;;;;;;4994816;28;21879;-60
2022/09/14 04:36:07;;;;;;;5.25;1.90;;;;;;;;;;5011640;28;20034;-61
2022/09/14 04:38:34;;;;;;;6.65;2.15;;;;;;;;;;5000012;28;20026;-61
2022/09/14 04:41:07;;;;;;;6.90;2.40;;;;;;;;;;5007014;28;20411;-61
2022/09/14 04:43:32;;;;;;;9.50;2.28;;;;;;;;;;4992061;28;20038;-61
2022/09/14 04:46:13;;;;;;;9.73;2.40;;;;;;;;;;4991608;28;20037;-60
2022/09/14 04:48:38;;;;;;;8.23;2.40;;;;;;;;;;4991726;28;20100;-60
2022/09/14 04:51:07;;;;;;;10.70;2.30;;;;;;;;;;4992268;28;20031;-62
2022/09/14 04:53:34;;;;;;;8.30;2.45;;;;;;;;;;4993754;28;20492;-61
2022/09/14 04:56:05;;;;;;;8.15;2.40;;;;;;;;;;4992353;28;20475;-61
2022/09/14 04:58:31;;;;;;;10.52;2.30;;;;;;;;;;4992718;28;20030;-61
2022/09/14 05:01:04;;;;;;;10.15;2.40;;;;;;;;;;4991707;28;20045;-60
2022/09/14 05:03:29;;;;;;;5.68;2.20;;;;;;;;;;4993421;28;20479;-61
2022/09/14 05:05:55;;;;;;;6.03;2.25;;;;;;;;;;4991448;28;20100;-60
2022/09/14 05:08:20;;;;;;;10.10;2.53;;;;;;;;;;4992463;28;20031;-60
2022/09/14 05:10:46;;;;;;;6.90;2.80;;;;;;;;;;4991653;28;20042;-61
2022/09/14 05:13:13;;;;;;;8.18;2.50;;;;;;;;;;4992269;28;20073;-60
2022/09/14 05:15:38;;;;;;;8.27;2.83;;;;;;;;;;4995929;28;20034;-60
2022/09/14 05:18:04;;;;;;;7.05;2.30;;;;;;;;;;5010394;28;20042;-61
2022/09/14 05:20:29;;;;;;;6.93;2.45;;;;;;;;;;4995564;28;20452;-61
2022/09/14 05:22:55;;;;;;;7.97;2.50;;;;;;;;;;4996388;28;20033;-59
2022/09/14 05:25:20;;;;;;;6.93;2.58;;;;;;;;;;5009512;28;20034;-59
2022/09/14 05:27:45;;;;;;;8.00;2.50;;;;;;;;;;5008175;28;20030;-60
2022/09/14 05:30:11;;;;;;;10.07;3.00;;;;;;;;;;5005454;28;20518;-60
2022/09/14 05:32:36;;;;;;;8.18;3.13;;;;;;;;;;4991693;28;20124;-60
2022/09/14 05:35:02;;;;;;;10.23;3.47;;;;;;;;;;4991103;28;20356;-60
2022/09/14 05:37:28;;;;;;;6.35;3.10;;;;;;;;;;5017586;28;20138;-60
2022/09/14 05:39:53;;;;;;;9.85;3.10;;;;;;;;;;4991012;28;20031;-60
2022/09/14 05:42:18;;;;;;;10.68;3.30;;;;;;;;;;4992091;28;20046;-60
2022/09/14 05:44:44;;;;;;;9.30;3.25;;;;;;;;;;5009537;28;20048;-60
2022/09/14 05:47:09;;;;;;;12.93;3.28;;;;;;;;;;5005707;28;20030;-60
2022/09/14 05:49:34;;;;;;;11.98;3.45;;;;;;;;;;5006856;28;20034;-60
2022/09/14 05:52:00;;;;;;;10.77;3.67;;;;;;;;;;4991001;28;20034;-61
2022/09/14 05:54:25;;;;;;;12.93;4.22;;;;;;;;;;4991935;28;20030;-61
2022/09/14 05:56:51;;;;;;;12.32;3.60;;;;;;;;;;4993594;28;20037;-61
2022/09/14 05:59:16;;;;;;;21.40;3.80;;;;;;;;;;4995119;28;20030;-61
2022/09/14 06:01:41;;;;;;;9.95;3.80;;;;;;;;;;4994531;28;20030;-61
2022/09/14 06:04:09;;;;;;;10.00;3.97;;;;;;;;;;4995802;28;20523;-61
2022/09/14 06:06:34;;;;;;;10.70;3.88;;;;;;;;;;4994950;28;20038;-61
2022/09/14 06:09:00;;;;;;;10.82;4.05;;;;;;;;;;4994465;28;20592;-61
2022/09/14 06:11:28;;;;;;;10.27;4.25;;;;;;;;;;4994887;28;20030;-61
2022/09/14 06:13:55;;;;;;;14.15;4.47;;;;;;;;;;5012290;28;20034;-62
2022/09/14 06:16:22;;;;;;;10.68;4.28;;;;;;;;;;5013845;28;20374;-64
2022/09/14 06:18:48;;;;;;;11.48;3.92;;;;;;;;;;5013373;28;20169;-64
2022/09/14 06:21:18;;;;;;;8.68;3.83;;;;;;;;;;5008045;28;20027;-66
2022/09/14 06:23:43;;;;;;;13.20;3.95;;;;;;;;;;4994024;28;20093;-66
2022/09/14 06:26:09;;;;;;;10.18;3.75;;;;;;;;;;5005384;28;20037;-62
2022/09/14 06:28:35;;;;;;;11.48;3.65;;;;;;;;;;5014514;28;20033;-61
2022/09/14 06:31:03;;;;;;;9.80;3.67;;;;;;;;;;5013359;28;20120;-63
2022/09/14 06:33:31;;;;;;;12.25;3.47;;;;;;;;;;5014178;28;20195;-63
2022/09/14 06:36:08;;;;;;;9.52;3.40;;;;;;;;;;5013375;28;20050;-63
2022/09/14 06:38:33;;;;;;;12.38;3.35;;;;;;;;;;5004988;28;20064;-62
2022/09/14 06:41:01;;;;;;;8.02;3.40;;;;;;;;;;5004637;28;20048;-63
2022/09/14 06:43:30;;;;;;;9.18;3.22;;;;;;;;;;5013994;28;20109;-62
2022/09/14 06:46:10;;;;;;;9.07;3.63;;;;;;;;;;5013292;28;20042;-63
2022/09/14 06:48:39;;;;;;;6.03;3.08;;;;;;;;;;5014002;28;20038;-63
2022/09/14 06:51:13;;;;;;;10.75;3.45;;;;;;;;;;5013314;28;20429;-62
2022/09/14 06:53:38;;;;;;;9.60;2.97;;;;;;;;;;5014058;28;20029;-62
2022/09/14 06:56:04;;;;;;;10.80;3.33;;;;;;;;;;5011186;28;20060;-63
2022/09/14 06:58:29;;;;;;;9.98;3.42;;;;;;;;;;5013858;28;20033;-62
2022/09/14 07:01:00;;;;;;;9.75;3.58;;;;;;;;;;5012955;28;20526;-62
2022/09/14 07:03:26;;;;;;;17.23;3.30;;;;;;;;;;5013611;28;20026;-62
2022/09/14 07:05:51;;;;;;;8.30;3.63;;;;;;;;;;5004626;28;20088;-63
2022/09/14 07:08:16;;;;;;;9.15;3.50;;;;;;;;;;4993962;28;20030;-63
2022/09/14 07:10:43;;;;;;;10.05;3.17;;;;;;;;;;4993874;28;20460;-63
2022/09/14 07:13:08;;;;;;;8.68;3.35;;;;;;;;;;4993849;28;20031;-63
2022/09/14 07:15:33;;;;;;;12.52;3.85;;;;;;;;;;4997750;28;20029;-63
2022/09/14 07:17:59;;;;;;;13.05;3.65;;;;;;;;;;5012343;28;20049;-63
2022/09/14 07:20:24;;;;;;;9.60;3.50;;;;;;;;;;5011202;28;20121;-62
2022/09/14 07:22:49;;;;;;;8.30;3.38;;;;;;;;;;5012512;28;20375;-63
2022/09/14 07:25:15;;;;;;;8.98;3.33;;;;;;;;;;5013265;28;20049;-63
2022/09/14 07:27:40;;;;;;;9.88;3.78;;;;;;;;;;5013063;28;20045;-63
2022/09/14 07:30:07;;;;;;;13.93;3.80;;;;;;;;;;4998990;28;20041;-62
2022/09/14 07:32:32;;;;;;;11.98;4.13;;;;;;;;;;5008343;28;20039;-62
2022/09/14 07:34:58;;;;;;;9.50;3.40;;;;;;;;;;4993677;28;20029;-63
2022/09/14 07:37:23;;;;;;;8.75;3.25;;;;;;;;;;5012016;28;20072;-64
2022/09/14 07:39:48;;;;;;;9.13;3.60;;;;;;;;;;5011906;28;20033;-64
2022/09/14 07:42:14;;;;;;;11.13;3.40;;;;;;;;;;5012969;28;20038;-63
2022/09/14 07:44:39;;;;;;;8.00;3.38;;;;;;;;;;5012869;28;20101;-63
2022/09/14 07:47:05;;;;;;;10.88;3.42;;;;;;;;;;5010878;28;20053;-63
2022/09/14 07:49:31;;;;;;;9.05;3.50;;;;;;;;;;5012837;28;20057;-62
2022/09/14 07:51:56;;;;;;;10.60;3.53;;;;;;;;;;5010175;28;20033;-62
2022/09/14 07:54:22;;;;;;;9.82;3.65;;;;;;;;;;5010638;28;20041;-62
2022/09/14 07:56:49;;;;;;;8.88;3.58;;;;;;;;;;5012072;28;20032;-62
2022/09/14 07:59:15;;;;;;;12.07;3.95;;;;;;;;;;5011443;28;20034;-63
2022/09/14 08:01:40;;;;;;;11.02;3.60;;;;;;;;;;5012540;28;20117;-62
2022/09/14 08:04:07;;;;;;;9.93;3.65;;;;;;;;;;4998463;28;20760;-62
2022/09/14 08:06:33;;;;;;;10.57;4.05;;;;;;;;;;4992690;28;20037;-63
2022/09/14 08:08:59;;;;;;;10.07;3.70;;;;;;;;;;5007202;28;20060;-63
2022/09/14 08:11:29;;;;;;;8.30;3.70;;;;;;;;;;4992763;28;20452;-62
2022/09/14 08:14:00;;;;;;;9.75;3.78;;;;;;;;;;4992015;28;20030;-63
2022/09/14 08:16:27;;;;;;;;;;;;;;;;;;5004057;28;20033;-62
2022/09/14 08:18:58;;;;;;;6.78;3.22;;;;;;;;;;5010734;28;20409;-63
2022/09/14 08:21:23;;;;;;;;;;;;;;;;;;5012347;28;20124;-62
2022/09/14 08:23:49;;;;;;;8.52;3.55;;;;;;;;;;5010562;28;20040;-62
2022/09/14 08:26:17;;;;;;;12.60;3.75;;;;;;;;;;5010836;28;20466;-62
2022/09/14 08:28:43;;;;;;;11.90;4.30;;;;;;;;;;5012107;28;20033;-62
2022/09/14 08:31:12;;;;;;;9.20;3.75;;;;;;;;;;5011794;28;20065;-62
2022/09/14 08:33:39;;;;;;;6.30;3.50;;;;;;;;;;5012295;28;20033;-62
2022/09/14 08:36:07;;;;;;;8.55;3.92;;;;;;;;;;5011399;28;20030;-62
2022/09/14 08:38:32;;;;;;;6.50;3.63;;;;;;;;;;4994536;28;20093;-62
2022/09/14 08:41:06;;;;;;;12.30;3.65;;;;;;;;;;4994220;28;20471;-62
2022/09/14 08:43:32;;;;;;;7.53;3.72;;;;;;;;;;5011985;28;20112;-63
2022/09/14 08:46:02;;;;;;;8.90;3.80;;;;;;;;;;5010510;28;20057;-63
2022/09/14 08:48:36;;;;;;;8.85;3.70;;;;;;;;;;5004190;28;20489;-63
2022/09/14 08:51:04;;;;;;;8.60;3.78;;;;;;;;;;4991556;28;20034;-63
2022/09/14 08:53:33;;;;;;;8.05;3.92;;;;;;;;;;5000698;28;20479;-63
2022/09/14 08:56:05;;;;;;;9.20;3.80;;;;;;;;;;4991574;28;20061;-63
2022/09/14 08:58:44;;;;;;;10.07;3.95;;;;;;;;;;5007374;28;20118;-63
2022/09/14 09:01:21;;;;;;;10.65;3.60;;;;;;;;;;4990191;28;20506;-63
2022/09/14 09:04:17;;;;;;;9.80;4.35;;;;;;;;;;5001730;28;20030;-63
2022/09/14 09:07:01;;;;;;;8.98;3.90;;;;;;;;;;5009085;28;20038;-63
2022/09/14 09:09:41;;;;;;;10.00;3.97;;;;;;;;;;4992244;28;20034;-63
2022/09/14 09:12:16;;;;;;;9.93;3.90;;;;;;;;;;5004013;28;20107;-63
2022/09/14 09:14:54;;;;;;;7.93;3.05;;;;;;;;;;5011847;28;20037;-63
2022/09/14 09:17:26;;;;;;;8.30;3.45;;;;;;;;;;5011324;28;20117;-63
2022/09/14 09:20:05;;;;;;;8.25;3.17;;;;;;;;;;5011205;28;20053;-62
2022/09/14 09:22:38;;;;;;;6.78;3.17;;;;;;;;;;5011364;28;20541;-62
2022/09/14 09:25:12;;;;;;;8.63;3.65;;;;;;;;;;5010825;28;20034;-62
2022/09/14 09:27:37;;;;;;;8.43;3.88;;;;;;;;;;5007811;28;20026;-62
2022/09/14 09:30:03;;;;;;;11.23;4.88;;;;;;;;;;4992577;28;20435;-63
2022/09/14 09:32:28;;;;;;;9.63;4.60;;;;;;;;;;4995833;28;20054;-62
2022/09/14 09:34:54;;;;;;;9.25;5.18;;;;;;;;;;4995035;28;20037;-63
2022/09/14 09:37:22;;;;;;;11.20;6.18;;;;;;;;;;4995549;28;20375;-62
2022/09/14 09:39:48;;;;;;;10.85;6.18;;;;;;;;;;4995528;28;20030;-63
2022/09/14 09:42:21;;;;;;;11.85;6.93;;;;;;;;;;5008222;28;20109;-62
2022/09/14 09:44:54;;;;;;;11.20;7.15;;;;;;;;;;4996095;28;20087;-62
2022/09/14 09:47:32;;;;;;;11.75;7.55;;;;;;;;;;4995045;28;20038;-62
2022/09/14 09:50:00;;;;;;;11.70;7.05;;;;;;;;;;4994584;28;20472;-63
2022/09/14 09:52:26;;;;;;;12.00;7.55;;;;;;;;;;4995726;28;20027;-62
2022/09/14 09:54:54;;;;;;;13.90;7.47;;;;;;;;;;5014457;28;20447;-65
2022/09/14 09:57:34;;;;;;;11.77;7.90;;;;;;;;;;5013127;28;20045;-62
2022/09/14 10:00:19;;;;;;;12.95;8.38;;;;;;;;;;5014432;28;20096;-62
2022/09/14 10:02:44;;;;;;;18.45;9.70;;;;;;;;;;5004551;28;20515;-62
2022/09/14 10:05:18;;;;;;;16.70;8.80;;;;;;;;;;4996323;28;20027;-62
2022/09/14 10:07:49;;;;;;;19.08;9.43;;;;;;;;;;5015053;28;20058;-62
2022/09/14 10:10:22;;;;;;;18.90;9.18;;;;;;;;;;5013042;28;20030;-62
2022/09/14 10:12:50;;;;;;;17.27;9.00;;;;;;;;;;5008960;28;20056;-62
2022/09/14 10:15:21;;;;;;;13.27;8.13;;;;;;;;;;5013718;28;20041;-62
2022/09/14 10:17:59;;;;;;;13.35;7.13;;;;;;;;;;5014514;28;20546;-62
2022/09/14 10:20:25;;;;;;;13.18;6.80;;;;;;;;;;5014118;28;20084;-62
2022/09/14 10:22:51;;;;;;;14.32;6.85;;;;;;;;;;5014213;28;20478;-62
2022/09/14 10:25:16;;;;;;;33.47;16.40;;;;;;;;;;5013539;28;20022;-62
2022/09/14 10:27:47;;;;;;;12.50;6.10;;;;;;;;;;5011545;28;20707;-63
2022/09/14 10:30:18;;;;;;;14.05;6.82;;;;;;;;;;4994632;28;20038;-62
2022/09/14 10:32:51;;;;;;;;;;;;;;;;;;4995258;28;20096;-62
2022/09/14 10:35:18;;;;;;;10.50;4.40;;;;;;;;;;4994098;28;20658;-62
2022/09/14 10:38:00;;;;;;;11.60;4.68;;;;;;;;;;4995257;28;20038;-62
2022/09/14 10:40:43;;;;;;;9.93;4.47;;;;;;;;;;4995536;28;20042;-62
2022/09/14 10:43:44;;;;;;;9.05;4.55;;;;;;;;;;4992989;28;20101;-62
2022/09/14 10:46:11;;;;;;;;;;;;;;;;;;4952815;28;20039;-62
2022/09/14 10:49:03;;;;;;;8.43;3.83;;;;;;;;;;4981372;28;19909;-62
2022/09/14 10:51:43;;;;;;;7.18;3.45;;;;;;;;;;4993642;28;20054;-62
2022/09/14 10:54:30;;;;;;;5.35;3.10;;;;;;;;;;4996187;28;20049;-62
2022/09/14 10:57:04;;;;;;;6.75;2.90;;;;;;;;;;4994211;28;20034;-61
2022/09/14 10:59:35;;;;;;;5.57;2.72;;;;;;;;;;4994009;28;20471;-62
2022/09/14 11:02:17;;;;;;;4.55;2.80;;;;;;;;;;4993055;28;20030;-62
2022/09/14 11:05:17;;;;;;;5.68;3.03;;;;;;;;;;4994109;28;20042;-62
2022/09/14 11:07:57;;;;;;;7.83;3.17;;;;;;;;;;5011727;28;20033;-62
2022/09/14 11:10:35;;;;;;;7.50;3.35;;;;;;;;;;5000597;28;20034;-62
2022/09/14 11:13:22;;;;;;;6.93;3.25;;;;;;;;;;5012343;28;20088;-61
2022/09/14 11:16:06;;;;;;;6.70;3.15;;;;;;;;;;5013436;28;20061;-62
2022/09/14 11:18:45;;;;;;;4.10;2.90;;;;;;;;;;5011888;28;20080;-62
2022/09/14 11:21:36;;;;;;;6.32;2.90;;;;;;;;;;5011333;28;20083;-61
2022/09/14 11:24:05;;;;;;;6.65;2.80;;;;;;;;;;5010289;28;20045;-61
2022/09/14 11:26:39;;;;;;;5.40;2.80;;;;;;;;;;5012236;28;20164;-62
2022/09/14 11:29:26;;;;;;;6.22;3.42;;;;;;;;;;4992852;28;20049;-61
2022/09/14 11:31:58;;;;;;;8.98;3.10;;;;;;;;;;4993382;28;20057;-62
2022/09/14 11:34:32;;;;;;;5.88;2.83;;;;;;;;;;4993008;28;20026;-61
2022/09/14 11:37:07;;;;;;;6.78;3.17;;;;;;;;;;5011163;28;20094;-62
2022/09/14 11:39:38;;;;;;;9.70;3.35;;;;;;;;;;5008866;28;20050;-62
2022/09/14 11:42:13;;;;;;;8.50;3.75;;;;;;;;;;4992343;28;20045;-62
2022/09/14 11:44:43;;;;;;;10.27;3.80;;;;;;;;;;4999071;28;20390;-62
2022/09/14 11:47:19;;;;;;;7.93;3.50;;;;;;;;;;4992510;28;20463;-62
2022/09/14 11:49:54;;;;;;;7.25;3.47;;;;;;;;;;4993479;28;20041;-61
2022/09/14 11:52:25;;;;;;;8.73;3.60;;;;;;;;;;4992446;28;20145;-61
2022/09/14 11:54:51;;;;;;;6.78;3.45;;;;;;;;;;4993134;28;20041;-61
2022/09/14 11:57:19;;;;;;;8.25;3.70;;;;;;;;;;4992418;28;20065;-61
2022/09/14 12:00:06;;;;;;;11.18;3.72;;;;;;;;;;4999546;28;20486;-61
2022/09/14 12:02:31;;;;;;;8.10;3.60;;;;;;;;;;5008154;28;20034;-61
2022/09/14 12:05:28;;;;;;;6.93;3.58;;;;;;;;;;5012606;28;20030;-63
2022/09/14 12:08:23;;;;;;;10.02;3.80;;;;;;;;;;5009236;28;20046;-63
2022/09/14 12:11:06;;;;;;;8.85;3.63;;;;;;;;;;5003462;28;20518;-62
2022/09/14 12:13:33;;;;;;;8.70;3.85;;;;;;;;;;5012273;28;20026;-62
2022/09/14 12:16:07;;;;;;;9.13;3.95;;;;;;;;;;5010187;28;20037;-62
2022/09/14 12:18:36;;;;;;;8.27;3.90;;;;;;;;;;5007934;28;20042;-62
2022/09/14 12:21:11;;;;;;;7.13;3.85;;;;;;;;;;5010904;28;20026;-62
2022/09/14 12:23:37;;;;;;;7.93;3.67;;;;;;;;;;5012387;28;20101;-62
2022/09/14 12:26:08;;;;;;;8.80;3.80;;;;;;;;;;5011781;28;20418;-62
2022/09/14 12:28:34;;;;;;;12.60;4.75;;;;;;;;;;5012209;28;20034;-61
2022/09/14 12:30:59;;;;;;;10.38;4.20;;;;;;;;;;5012492;28;20121;-62
2022/09/14 12:33:31;;;;;;;6.75;4.13;;;;;;;;;;5006256;28;21205;-62
2022/09/14 12:35:57;;;;;;;9.13;3.90;;;;;;;;;;4992514;28;20112;-61
2022/09/14 12:38:31;;;;;;;8.13;4.20;;;;;;;;;;4991595;28;20052;-62
2022/09/14 12:41:02;;;;;;;11.63;4.60;;;;;;;;;;4992441;28;20046;-62
2022/09/14 12:43:33;;;;;;;7.95;4.45;;;;;;;;;;4991719;28;20035;-61
2022/09/14 12:46:20;;;;;;;8.68;5.20;;;;;;;;;;4992544;28;20043;-61
2022/09/14 12:48:48;;;;;;;9.52;4.72;;;;;;;;;;4997779;28;20034;-61
2022/09/14 12:51:13;;;;;;;9.50;4.55;;;;;;;;;;5011287;28;20038;-61
2022/09/14 12:53:42;;;;;;;9.43;5.10;;;;;;;;;;5004010;28;20084;-61
2022/09/14 12:56:18;;;;;;;9.98;4.50;;;;;;;;;;5009844;28;20038;-61
2022/09/14 12:59:06;;;;;;;9.35;4.38;;;;;;;;;;5011968;28;20033;-60
2022/09/14 13:02:09;;;;;;;8.43;4.30;;;;;;;;;;5011436;28;20378;-60
2022/09/14 13:04:38;;;;;;;9.30;4.38;;;;;;;;;;5008820;28;20053;-60
2022/09/14 13:07:06;;;;;;;9.30;4.05;;;;;;;;;;4995937;28;20537;-63
2022/09/14 13:09:32;;;;;;;9.43;3.80;;;;;;;;;;5004177;28;20088;-61
2022/09/14 13:12:04;;;;;;;7.43;3.83;;;;;;;;;;5015850;28;20038;-61
2022/09/14 13:14:33;;;;;;;7.15;3.90;;;;;;;;;;5015207;28;20040;-61
2022/09/14 13:17:02;;;;;;;6.25;3.67;;;;;;;;;;5014563;28;20485;-61
2022/09/14 13:19:32;;;;;;;12.77;4.28;;;;;;;;;;5013084;28;20390;-60
2022/09/14 13:22:00;;;;;;;6.85;3.97;;;;;;;;;;5015805;28;20103;-60
2022/09/14 13:24:43;;;;;;;8.70;3.95;;;;;;;;;;5014406;28;20045;-60
2022/09/14 13:27:30;;;;;;;6.72;3.65;;;;;;;;;;5014097;28;20475;-61
2022/09/14 13:30:02;;;;;;;7.65;3.80;;;;;;;;;;5015444;28;20038;-60
2022/09/14 13:32:27;;;;;;;8.63;3.47;;;;;;;;;;5013351;28;20487;-60
2022/09/14 13:34:53;;;;;;;6.78;3.25;;;;;;;;;;5014429;28;20034;-60
2022/09/14 13:37:20;;;;;;;6.25;3.05;;;;;;;;;;5014413;28;20068;-60
2022/09/14 13:39:52;;;;;;;6.80;3.00;;;;;;;;;;5014157;28;20061;-60
2022/09/14 13:42:19;;;;;;;5.85;3.10;;;;;;;;;;5010675;28;20046;-60
2022/09/14 13:44:45;;;;;;;6.28;2.90;;;;;;;;;;4996267;28;20510;-60
2022/09/14 13:47:20;;;;;;;6.60;3.05;;;;;;;;;;4994661;28;20117;-60
2022/09/14 13:49:49;;;;;;;7.22;2.70;;;;;;;;;;4995138;28;20089;-60
2022/09/14 13:52:20;;;;;;;4.93;3.10;;;;;;;;;;4994644;28;20034;-60
2022/09/14 13:54:47;;;;;;;7.30;3.25;;;;;;;;;;4995206;28;20479;-60
2022/09/14 13:57:13;;;;;;;5.40;2.70;;;;;;;;;;4994372;28;20072;-61
2022/09/14 14:00:08;;;;;;;6.07;3.25;;;;;;;;;;4995842;28;20026;-60
2022/09/14 14:02:35;;;;;;;7.18;3.10;;;;;;;;;;4994875;28;20045;-60
2022/09/14 14:05:02;;;;;;;6.00;3.10;;;;;;;;;;4997561;28;20489;-60
2022/09/14 14:07:32;;;;;;;5.60;3.42;;;;;;;;;;4994241;28;20478;-60
2022/09/14 14:09:58;;;;;;;6.75;3.60;;;;;;;;;;4995125;28;20030;-60
2022/09/14 14:12:28;;;;;;;8.00;3.45;;;;;;;;;;4993887;28;20108;-60
2022/09/14 14:14:54;;;;;;;7.15;3.83;;;;;;;;;;4995273;28;20037;-60
2022/09/14 14:17:23;;;;;;;6.93;3.88;;;;;;;;;;4993441;28;20399;-60
2022/09/14 14:19:53;;;;;;;4.65;3.50;;;;;;;;;;4995026;28;20126;-60
2022/09/14 14:22:31;;;;;;;7.10;3.83;;;;;;;;;;4994157;28;20034;-61
2022/09/14 14:24:58;;;;;;;7.13;4.10;;;;;;;;;;5011335;28;20049;-59
2022/09/14 14:27:29;;;;;;;8.07;4.05;;;;;;;;;;5005907;28;20365;-60
2022/09/14 14:29:55;;;;;;;;;;;;;;;;;;4995496;28;20375;-59
2022/09/14 14:32:21;;;;;;;7.45;4.40;;;;;;;;;;5004051;28;20373;-60
2022/09/14 14:34:46;;;;;;;8.63;4.22;;;;;;;;;;5013207;28;20030;-60
2022/09/14 14:37:12;;;;;;;8.15;4.75;;;;;;;;;;5013377;28;20057;-61
2022/09/14 14:39:37;;;;;;;6.88;4.35;;;;;;;;;;5014027;28;20040;-60
2022/09/14 14:42:04;;;;;;;7.97;4.35;;;;;;;;;;5012115;28;20095;-60
2022/09/14 14:44:30;;;;;;;7.20;4.78;;;;;;;;;;5011285;28;20038;-60
2022/09/14 14:46:55;;;;;;;7.20;4.32;;;;;;;;;;5014100;28;20372;-59
2022/09/14 14:49:22;;;;;;;10.05;4.82;;;;;;;;;;5012233;28;20458;-60
2022/09/14 14:51:48;;;;;;;12.85;4.82;;;;;;;;;;5002956;28;20030;-60
2022/09/14 14:54:17;;;;;;;6.90;5.10;;;;;;;;;;4993563;28;20117;-60
2022/09/14 14:56:47;;;;;;;7.15;4.50;;;;;;;;;;4994964;28;20460;-60
2022/09/14 14:59:33;;;;;;;8.38;4.60;;;;;;;;;;5008682;28;20470;-61
2022/09/14 15:01:58;;;;;;;7.60;4.65;;;;;;;;;;4993702;28;20042;-60